Time;durP1;ratioP1;P1;durP2;ratioP2;P2;SDS_P1;SDS_P2;PMS_P1;PMS_P2;Temp;Humidity;BMP_temperature;BMP_pressure;BME280_temperature;BME280_humidity;BME280_pressure;Samples;Min_cycle;Max_cycle;Signal;HPM_P1;HPM_P2
2022/05/02 00:01:59;;;;;;;2.90;1.55;;;20.00;72.10;;;;;;5117593;23;20032;-74
2022/05/02 00:04:01;;;;;;;1.60;0.95;;;20.00;71.70;;;;;;5117399;22;20584;-73
2022/05/02 00:06:03;;;;;;;1.63;0.80;;;20.00;71.60;;;;;;5114115;22;20028;-71
2022/05/02 00:08:06;;;;;;;2.22;0.65;;;20.00;71.50;;;;;;5113752;23;20106;-70
2022/05/02 00:10:09;;;;;;;0.60;0.60;;;20.00;71.50;;;;;;5121839;22;20684;-73
2022/05/02 00:12:11;;;;;;;1.05;0.90;;;20.10;71.60;;;;;;5115269;22;20142;-73
2022/05/02 00:14:13;;;;;;;3.07;1.03;;;20.10;71.50;;;;;;5086249;23;20080;-72
2022/05/02 00:16:16;;;;;;;2.08;1.10;;;20.10;71.40;;;;;;5120305;22;20032;-72
2022/05/02 00:18:18;;;;;;;1.92;1.00;;;20.10;71.40;;;;;;5114053;23;20605;-68
2022/05/02 00:20:20;;;;;;;6.43;1.75;;;20.20;71.30;;;;;;5110846;23;20187;-68
2022/05/02 00:22:22;;;;;;;5.07;1.70;;;20.20;71.00;;;;;;5113339;23;20125;-74
2022/05/02 00:24:24;;;;;;;4.80;1.40;;;20.20;70.70;;;;;;5115825;23;20136;-71
2022/05/02 00:26:26;;;;;;;3.08;1.20;;;20.20;70.70;;;;;;5087069;23;20033;-75
2022/05/02 00:28:29;;;;;;;4.30;1.58;;;20.30;70.80;;;;;;5113984;23;20488;-68
2022/05/02 00:30:31;;;;;;;3.13;1.80;;;20.30;70.40;;;;;;5096826;23;20456;-77
2022/05/02 00:32:34;;;;;;;5.60;1.67;;;20.20;70.30;;;;;;5112569;23;20099;-72
2022/05/02 00:34:39;;;;;;;4.57;1.65;;;20.30;70.30;;;;;;5110292;23;20378;-70
2022/05/02 00:36:41;;;;;;;3.80;1.40;;;20.30;70.20;;;;;;5116392;23;20337;-71
2022/05/02 00:38:44;;;;;;;5.85;2.35;;;20.30;70.20;;;;;;5120748;23;20307;-71
2022/05/02 00:40:46;;;;;;;4.72;1.70;;;20.30;69.80;;;;;;5114799;23;20056;-68
2022/05/02 00:42:52;;;;;;;8.07;2.47;;;20.40;70.30;;;;;;5113393;22;20028;-66
2022/05/02 00:44:55;;;;;;;7.28;2.05;;;20.30;69.60;;;;;;5118914;23;20032;-65
2022/05/02 00:46:58;;;;;;;5.95;2.33;;;20.30;69.80;;;;;;5090127;23;20313;-68
2022/05/02 00:49:00;;;;;;;4.05;2.10;;;20.30;70.10;;;;;;5114619;22;20028;-71
2022/05/02 00:51:02;;;;;;;5.77;2.17;;;20.40;70.20;;;;;;5116527;22;20367;-66
2022/05/02 00:53:07;;;;;;;5.90;2.42;;;20.30;70.10;;;;;;5116839;23;21263;-67
2022/05/02 00:55:09;;;;;;;6.55;2.60;;;20.30;70.00;;;;;;5114047;22;20205;-69
2022/05/02 00:57:16;;;;;;;7.40;2.55;;;20.40;70.10;;;;;;5087887;23;20087;-66
2022/05/02 00:59:21;;;;;;;5.00;2.50;;;20.40;70.10;;;;;;5114002;23;20052;-71
2022/05/02 01:01:24;;;;;;;7.38;2.30;;;20.40;70.30;;;;;;5119879;22;20032;-69
2022/05/02 01:03:26;;;;;;;6.53;2.00;;;20.40;70.30;;;;;;5107619;23;20905;-64
2022/05/02 01:05:29;;;;;;;6.60;2.40;;;20.40;70.10;;;;;;5105087;22;20086;-66
2022/05/02 01:07:31;;;;;;;3.93;2.23;;;20.50;69.90;;;;;;5116195;22;20063;-66
2022/05/02 01:09:34;;;;;;;8.18;2.53;;;20.40;69.60;;;;;;5119970;22;20380;-69
2022/05/02 01:11:37;;;;;;;6.13;2.30;;;20.50;69.80;;;;;;5113810;22;20355;-65
2022/05/02 01:13:47;;;;;;;5.78;1.92;;;20.50;70.20;;;;;;5084944;23;20188;-66
2022/05/02 01:15:49;;;;;;;6.22;2.38;;;20.50;70.70;;;;;;5109282;23;20244;-69
2022/05/02 01:17:51;;;;;;;6.15;2.42;;;20.60;70.60;;;;;;5119169;23;20028;-67
2022/05/02 01:19:54;;;;;;;5.57;2.15;;;20.60;70.10;;;;;;5112180;23;20169;-67
2022/05/02 01:21:56;;;;;;;3.45;1.85;;;20.70;69.60;;;;;;5112181;22;20074;-69
2022/05/02 01:24:04;;;;;;;4.10;1.65;;;20.70;69.50;;;;;;5120278;23;20040;-62
2022/05/02 01:26:07;;;;;;;8.13;2.13;;;20.70;69.70;;;;;;5122332;22;20021;-63
2022/05/02 01:28:11;;;;;;;5.88;2.25;;;20.80;69.60;;;;;;5112942;22;20039;-67
2022/05/02 01:30:13;;;;;;;2.78;1.52;;;20.80;69.80;;;;;;5111427;23;20482;-65
2022/05/02 01:32:17;;;;;;;3.97;1.70;;;20.90;69.90;;;;;;5094676;23;20068;-64
2022/05/02 01:34:19;;;;;;;4.18;1.73;;;20.90;69.80;;;;;;5119975;22;20300;-66
2022/05/02 01:36:23;;;;;;;3.83;1.50;;;20.90;69.60;;;;;;5110129;23;20062;-67
2022/05/02 01:38:25;;;;;;;4.13;2.00;;;21.00;69.30;;;;;;5086896;23;20081;-65
2022/05/02 01:40:28;;;;;;;4.47;1.92;;;21.00;68.70;;;;;;5119135;22;20064;-64
2022/05/02 01:42:30;;;;;;;4.78;2.13;;;21.00;68.40;;;;;;5116221;22;20638;-69
2022/05/02 01:44:32;;;;;;;2.45;1.40;;;21.10;68.70;;;;;;5113995;22;20190;-65
2022/05/02 01:46:39;;;;;;;3.95;1.90;;;21.10;69.00;;;;;;5120649;22;20950;-67
2022/05/02 01:48:41;;;;;;;5.95;2.10;;;21.10;68.80;;;;;;5116104;23;20085;-66
2022/05/02 01:50:43;;;;;;;4.07;1.40;;;21.10;68.50;;;;;;5109575;23;20449;-66
2022/05/02 01:52:45;;;;;;;10.02;1.95;;;21.10;68.70;;;;;;5113787;22;20025;-66
2022/05/02 01:54:48;;;;;;;5.47;1.50;;;21.20;68.70;;;;;;5118906;23;20107;-67
2022/05/02 01:56:51;;;;;;;4.88;1.80;;;21.20;68.80;;;;;;5113411;23;20575;-66
2022/05/02 01:58:53;;;;;;;4.03;1.90;;;21.20;68.80;;;;;;5112897;23;20024;-64
2022/05/02 02:00:56;;;;;;;6.40;2.28;;;21.20;68.70;;;;;;5111039;23;20098;-66
2022/05/02 02:02:58;;;;;;;4.95;2.05;;;21.20;68.30;;;;;;5117936;22;20103;-67
2022/05/02 02:07:20;;;;;;;6.88;2.17;;;21.30;68.00;;;;;;5118672;23;20849;-67
2022/05/02 02:09:22;;;;;;;5.50;2.13;;;21.30;67.80;;;;;;5112578;22;20039;-67
2022/05/02 02:11:24;;;;;;;4.32;2.03;;;21.20;67.50;;;;;;5113584;22;20040;-66
2022/05/02 02:13:30;;;;;;;5.72;2.33;;;21.20;67.60;;;;;;5092132;23;20079;-71
2022/05/02 02:15:36;;;;;;;6.20;2.50;;;21.30;67.30;;;;;;5113718;23;20754;-66
2022/05/02 02:17:38;;;;;;;5.75;2.40;;;21.30;66.90;;;;;;5111068;23;20036;-66
2022/05/02 02:19:40;;;;;;;5.50;2.05;;;21.30;67.50;;;;;;5113525;23;20513;-70
2022/05/02 02:21:45;;;;;;;4.53;1.98;;;21.30;67.80;;;;;;5118418;23;20104;-67
2022/05/02 02:23:47;;;;;;;4.85;2.10;;;21.40;67.60;;;;;;5110793;23;20091;-66
2022/05/02 02:25:50;;;;;;;6.95;2.17;;;21.40;67.50;;;;;;5118224;22;20028;-67
2022/05/02 02:27:55;;;;;;;5.40;2.47;;;21.50;67.70;;;;;;5116526;23;20032;-67
2022/05/02 02:29:58;;;;;;;4.57;2.17;;;21.50;67.40;;;;;;5129960;23;20202;-64
2022/05/02 02:32:00;;;;;;;4.17;2.13;;;21.50;67.30;;;;;;5117508;22;20135;-67
2022/05/02 02:34:02;;;;;;;4.60;1.83;;;21.60;67.40;;;;;;5116995;22;20027;-64
2022/05/02 02:36:05;;;;;;;4.13;2.10;;;21.60;67.80;;;;;;5121405;22;20028;-70
2022/05/02 02:38:09;;;;;;;3.33;1.67;;;21.60;67.50;;;;;;5122669;22;20497;-67
2022/05/02 02:40:11;;;;;;;7.22;2.17;;;21.70;67.60;;;;;;5118793;22;20473;-66
2022/05/02 02:42:14;;;;;;;3.20;1.77;;;21.70;67.80;;;;;;5121817;22;20051;-66
2022/05/02 02:44:16;;;;;;;5.23;2.00;;;21.70;67.80;;;;;;5096182;23;20105;-68
2022/05/02 02:46:19;;;;;;;5.43;1.88;;;21.80;67.40;;;;;;5114812;23;20262;-69
2022/05/02 02:48:21;;;;;;;5.10;2.05;;;21.80;67.10;;;;;;5113809;23;20669;-65
2022/05/02 02:50:24;;;;;;;5.70;2.25;;;21.80;67.00;;;;;;5129255;22;20047;-67
2022/05/02 02:52:26;;;;;;;4.83;2.07;;;21.90;67.20;;;;;;5117789;23;20024;-67
2022/05/02 02:54:28;;;;;;;7.20;1.80;;;21.90;66.80;;;;;;5124832;22;20262;-68
2022/05/02 02:56:30;;;;;;;5.15;1.95;;;21.90;66.80;;;;;;5125615;22;20146;-70
2022/05/02 02:58:33;;;;;;;7.85;2.25;;;21.90;66.80;;;;;;5125323;23;20106;-68
2022/05/02 03:00:35;;;;;;;7.75;2.47;;;21.90;67.00;;;;;;5122175;23;20052;-68
2022/05/02 03:02:40;;;;;;;6.28;2.40;;;22.00;66.90;;;;;;5091626;23;20029;-66
2022/05/02 03:07:05;;;;;;;3.33;1.92;;;22.00;67.50;;;;;;5124594;23;20088;-68
2022/05/02 03:09:07;;;;;;;6.95;2.15;;;22.00;67.20;;;;;;5104948;23;20054;-69
2022/05/02 03:11:13;;;;;;;3.92;1.85;;;22.00;67.00;;;;;;5131518;22;20031;-66
2022/05/02 03:13:15;;;;;;;4.43;1.60;;;22.00;67.40;;;;;;5127405;23;20107;-66
2022/05/02 03:15:17;;;;;;;4.60;1.83;;;22.00;67.20;;;;;;5125618;22;20414;-66
2022/05/02 03:17:19;;;;;;;5.57;2.15;;;22.10;67.30;;;;;;5126569;23;20076;-64
2022/05/02 03:19:22;;;;;;;7.78;1.90;;;22.10;66.80;;;;;;5133968;22;20034;-69
2022/05/02 03:21:24;;;;;;;8.00;1.98;;;22.10;66.80;;;;;;5141846;22;20428;-67
2022/05/02 03:23:26;;;;;;;5.38;1.83;;;22.10;66.70;;;;;;5139662;22;20362;-66
2022/05/02 03:25:29;;;;;;;5.60;2.10;;;22.10;66.90;;;;;;5133345;23;20028;-66
2022/05/02 03:27:31;;;;;;;4.93;1.98;;;22.20;66.10;;;;;;5137253;22;20020;-67
2022/05/02 03:29:33;;;;;;;8.52;2.30;;;22.20;66.00;;;;;;5129274;23;20024;-66
2022/05/02 03:31:35;;;;;;;4.97;2.00;;;22.20;66.00;;;;;;5126672;23;20094;-67
2022/05/02 03:33:37;;;;;;;5.57;1.98;;;22.30;66.70;;;;;;5129398;23;20047;-66
2022/05/02 03:35:43;;;;;;;4.53;1.58;;;22.30;66.30;;;;;;5135867;23;20020;-68
2022/05/02 03:37:45;;;;;;;5.90;2.00;;;22.30;66.20;;;;;;5133011;22;20039;-65
2022/05/02 03:39:47;;;;;;;5.97;1.80;;;22.30;66.10;;;;;;5123489;22;20027;-68
2022/05/02 03:41:50;;;;;;;4.40;1.98;;;22.40;66.00;;;;;;5114569;22;20039;-74
2022/05/02 03:43:53;;;;;;;4.03;1.50;;;22.30;66.30;;;;;;5120335;23;20024;-66
2022/05/02 03:45:55;;;;;;;6.85;2.00;;;22.30;66.40;;;;;;5118086;23;20016;-65
2022/05/02 03:47:59;;;;;;;6.65;1.83;;;22.40;66.60;;;;;;5113146;22;20032;-68
2022/05/02 03:50:01;;;;;;;4.93;1.67;;;22.40;66.50;;;;;;5118102;22;20051;-65
2022/05/02 03:52:05;;;;;;;4.65;1.83;;;22.40;66.30;;;;;;5119929;22;20047;-66
2022/05/02 03:54:07;;;;;;;2.95;1.50;;;22.50;66.20;;;;;;5117638;22;20403;-69
2022/05/02 03:56:09;;;;;;;4.50;1.60;;;22.50;66.20;;;;;;5118580;23;20051;-72
2022/05/02 03:58:12;;;;;;;3.97;2.00;;;22.60;66.30;;;;;;5116934;23;20265;-71
2022/05/02 04:00:15;;;;;;;4.47;2.13;;;22.60;65.70;;;;;;5124157;23;20023;-67
2022/05/02 04:02:17;;;;;;;3.45;1.80;;;22.70;65.90;;;;;;5092799;23;20128;-70
2022/05/02 04:04:20;;;;;;;3.75;1.80;;;22.70;66.00;;;;;;5114509;23;20192;-70
2022/05/02 04:06:22;;;;;;;2.70;1.50;;;22.70;65.90;;;;;;5125371;23;20051;-71
2022/05/02 04:08:25;;;;;;;4.00;1.60;;;22.70;66.10;;;;;;5117898;23;20103;-66
2022/05/02 04:10:27;;;;;;;3.15;1.75;;;22.70;66.40;;;;;;5115096;23;20102;-66
2022/05/02 04:12:36;;;;;;;4.28;1.60;;;22.70;66.20;;;;;;5117364;22;20195;-65
2022/05/02 04:14:38;;;;;;;4.13;1.92;;;22.70;65.90;;;;;;5120655;22;20169;-66
2022/05/02 04:16:40;;;;;;;4.55;1.52;;;22.70;65.70;;;;;;5119310;22;20031;-66
2022/05/02 04:18:43;;;;;;;3.50;2.00;;;22.80;65.60;;;;;;5118063;22;20381;-71
2022/05/02 04:20:45;;;;;;;3.45;1.85;;;22.80;65.00;;;;;;5115589;23;20028;-65
2022/05/02 04:22:47;;;;;;;3.92;1.73;;;22.80;65.20;;;;;;5121080;23;20901;-64
2022/05/02 04:24:50;;;;;;;3.55;1.70;;;22.80;65.50;;;;;;5110760;23;20143;-67
2022/05/02 04:26:52;;;;;;;4.80;1.73;;;22.80;65.90;;;;;;5114988;23;20113;-66
2022/05/02 04:28:54;;;;;;;3.63;1.70;;;22.80;65.80;;;;;;5121480;22;20031;-67
2022/05/02 04:30:57;;;;;;;4.60;1.67;;;22.80;66.00;;;;;;5113359;23;20110;-67
2022/05/02 04:32:59;;;;;;;4.55;1.70;;;22.90;65.70;;;;;;5110715;23;20024;-68
2022/05/02 04:35:02;;;;;;;4.50;1.70;;;23.00;65.40;;;;;;5117620;22;20042;-71
2022/05/02 04:37:05;;;;;;;4.47;1.98;;;23.00;65.30;;;;;;5117252;23;20043;-66
2022/05/02 04:39:07;;;;;;;5.43;2.03;;;23.20;64.60;;;;;;5084923;23;20075;-64
2022/05/02 04:41:13;;;;;;;4.75;1.90;;;23.30;64.30;;;;;;5116719;22;20468;-69
2022/05/02 04:43:17;;;;;;;3.10;1.67;;;23.30;63.40;;;;;;5120642;22;20099;-70
2022/05/02 04:45:19;;;;;;;2.63;1.80;;;23.50;63.40;;;;;;5119323;23;20027;-69
2022/05/02 04:47:21;;;;;;;3.25;1.80;;;23.50;63.50;;;;;;5118145;22;20047;-71
2022/05/02 04:49:24;;;;;;;4.68;1.60;;;23.60;63.00;;;;;;5119949;22;20024;-77
2022/05/02 04:51:26;;;;;;;6.15;2.20;;;23.70;63.10;;;;;;5124299;22;20056;-76
2022/05/02 04:53:31;;;;;;;3.55;1.80;;;23.80;63.00;;;;;;5117221;22;20028;-76
2022/05/02 04:55:33;;;;;;;4.18;1.73;;;23.90;63.00;;;;;;5112510;23;20107;-77
2022/05/02 04:57:36;;;;;;;3.70;1.40;;;23.90;63.00;;;;;;5124570;22;20054;-71
2022/05/02 04:59:38;;;;;;;3.28;1.52;;;24.00;62.90;;;;;;5121475;22;20131;-77
2022/05/02 05:01:41;;;;;;;4.18;1.58;;;24.10;62.90;;;;;;5102511;23;20423;-73
2022/05/02 05:03:43;;;;;;;4.55;1.67;;;24.20;62.60;;;;;;5122690;22;20445;-72
2022/05/02 05:05:45;;;;;;;5.68;1.80;;;24.30;62.70;;;;;;5124987;23;20028;-71
2022/05/02 05:07:47;;;;;;;3.72;1.60;;;24.30;62.40;;;;;;5118797;23;20135;-72
2022/05/02 05:09:49;;;;;;;5.28;1.65;;;24.30;62.20;;;;;;5122009;22;20028;-74
2022/05/02 05:12:33;;;;;;;3.50;1.55;;;24.40;62.40;;;;;;5124284;23;20101;-74
2022/05/02 05:17:56;;;;;;;4.18;1.17;;;24.50;62.00;;;;;;5125965;23;20055;-75
2022/05/02 05:20:30;;;;;;;3.17;1.70;;;24.60;61.80;;;;;;5128257;22;20081;-75
2022/05/02 05:23:04;;;;;;;4.00;1.75;;;24.60;61.60;;;;;;5069768;23;20521;-73
2022/05/02 05:25:24;;;;;;;2.97;1.38;;;24.70;61.70;;;;;;5122728;23;20127;-74
2022/05/02 05:27:32;;;;;;;3.28;1.40;;;24.80;61.70;;;;;;5120876;23;20048;-73
2022/05/02 05:30:02;;;;;;;3.78;1.40;;;24.80;61.70;;;;;;5098421;23;20814;-74
2022/05/02 05:32:34;;;;;;;4.40;1.70;;;24.80;61.60;;;;;;5099138;23;20039;-74
2022/05/02 05:34:57;;;;;;;3.50;1.30;;;24.90;61.50;;;;;;5119786;23;20162;-73
2022/05/02 05:37:17;;;;;;;6.20;1.50;;;24.90;61.50;;;;;;5127061;23;20905;-69
2022/05/02 05:39:46;;;;;;;4.57;1.40;;;24.90;61.60;;;;;;5127024;22;20024;-74
2022/05/02 05:42:01;;;;;;;4.53;1.48;;;24.90;61.10;;;;;;5122863;23;20032;-69
2022/05/02 05:44:24;;;;;;;1.73;1.25;;;24.90;61.20;;;;;;5121433;23;20959;-75
2022/05/02 05:46:55;;;;;;;3.93;1.50;;;25.00;61.30;;;;;;5126903;23;20079;-70
2022/05/02 05:49:08;;;;;;;4.07;1.40;;;24.90;61.30;;;;;;5023501;23;20976;-75
2022/05/02 05:51:28;;;;;;;4.00;1.30;;;24.90;61.20;;;;;;5124614;23;20043;-74
2022/05/02 05:53:38;;;;;;;3.20;1.27;;;24.90;60.90;;;;;;5133348;22;20572;-73
2022/05/02 05:55:55;;;;;;;3.33;1.50;;;24.90;61.20;;;;;;5127387;22;20038;-72
2022/05/02 05:58:09;;;;;;;1.55;1.15;;;24.80;61.30;;;;;;5124394;23;20344;-72
2022/05/02 06:00:12;;;;;;;3.78;1.50;;;24.80;61.20;;;;;;5126519;22;20066;-74
2022/05/02 06:02:22;;;;;;;3.13;1.48;;;24.80;61.30;;;;;;5130861;22;20043;-67
2022/05/02 06:04:26;;;;;;;3.80;1.40;;;24.80;61.30;;;;;;5121861;23;20099;-73
2022/05/02 06:06:29;;;;;;;3.40;1.88;;;24.80;61.20;;;;;;5086291;23;20024;-67
2022/05/02 06:08:35;;;;;;;3.25;1.27;;;24.80;61.60;;;;;;5119821;23;20027;-73
2022/05/02 06:10:39;;;;;;;4.22;1.65;;;24.80;61.90;;;;;;5117141;22;20421;-71
2022/05/02 06:12:43;;;;;;;3.22;1.45;;;24.80;61.80;;;;;;5126472;23;20036;-70
2022/05/02 06:19:30;;;;;;;6.25;1.77;;;24.60;61.80;;;;;;5116699;23;20045;-68
2022/05/02 06:21:32;;;;;;;;;;;24.60;61.90;;;;;;5125263;23;20556;-68
2022/05/02 06:23:43;;;;;;;5.30;2.28;;;24.60;62.10;;;;;;5120294;23;19919;-67
2022/05/02 06:25:56;;;;;;;4.68;2.28;;;24.60;62.10;;;;;;5122189;23;21141;-69
2022/05/02 06:27:59;;;;;;;5.65;2.22;;;24.60;62.30;;;;;;5119950;23;20702;-70
2022/05/02 06:30:04;;;;;;;4.85;1.80;;;24.60;62.10;;;;;;5118512;23;20433;-70
2022/05/02 06:32:11;;;;;;;5.10;2.80;;;24.60;62.20;;;;;;5120353;23;20604;-69
2022/05/02 06:34:15;;;;;;;7.72;3.80;;;24.60;62.20;;;;;;5126546;22;20138;-71
2022/05/02 06:36:29;;;;;;;8.48;3.30;;;24.60;62.20;;;;;;5125727;22;20027;-71
2022/05/02 06:38:43;;;;;;;;;;;24.60;62.10;;;;;;5124105;23;20043;-72
2022/05/02 06:40:55;;;;;;;;;;;24.60;62.30;;;;;;5122992;23;19988;-72
2022/05/02 06:43:12;;;;;;;4.85;2.47;;;24.60;62.70;;;;;;5124240;22;20704;-75
2022/05/02 06:45:29;;;;;;;6.07;2.80;;;24.60;62.80;;;;;;5118142;22;20028;-72
2022/05/02 06:47:37;;;;;;;6.72;2.58;;;24.60;63.00;;;;;;5120542;23;20027;-74
2022/05/02 06:49:43;;;;;;;7.57;3.00;;;24.70;63.20;;;;;;5122043;23;20073;-78
2022/05/02 06:51:51;;;;;;;5.15;2.28;;;24.80;63.00;;;;;;5125333;23;20090;-74
2022/05/02 06:53:56;;;;;;;8.88;2.63;;;25.00;63.00;;;;;;5125096;23;20070;-75
2022/05/02 06:56:36;;;;;;;9.10;3.25;;;25.20;62.00;;;;;;5124206;22;20031;-73
2022/05/02 06:58:44;;;;;;;5.90;2.63;;;25.10;62.30;;;;;;5127423;22;20032;-75
2022/05/02 07:01:09;;;;;;;6.18;2.70;;;24.90;62.80;;;;;;5119151;23;20028;-72
2022/05/02 07:03:23;;;;;;;6.78;4.53;;;24.80;63.20;;;;;;5131331;22;20024;-73
2022/05/02 07:05:52;;;;;;;12.48;8.32;;;24.70;63.50;;;;;;5129413;22;20693;-71
2022/05/02 07:08:05;;;;;;;21.30;19.05;;;24.60;63.60;;;;;;5122147;22;20532;-72
2022/05/02 07:10:27;;;;;;;26.23;21.80;;;24.50;63.80;;;;;;5122428;22;20596;-71
2022/05/02 07:12:32;;;;;;;32.08;27.00;;;24.40;64.00;;;;;;5098971;23;20123;-73
2022/05/02 07:15:04;;;;;;;34.60;30.70;;;24.40;64.20;;;;;;5123186;23;20047;-72
2022/05/02 07:17:21;;;;;;;32.50;28.98;;;24.30;64.30;;;;;;5126887;23;20078;-72
2022/05/02 07:19:48;;;;;;;36.45;32.38;;;24.30;64.60;;;;;;5135187;23;20024;-72
2022/05/02 07:22:01;;;;;;;34.58;29.10;;;24.20;64.60;;;;;;5114265;23;20573;-73
2022/05/02 07:24:33;;;;;;;33.28;29.75;;;24.20;64.70;;;;;;5110761;23;20039;-69
2022/05/02 07:26:38;;;;;;;33.17;25.88;;;24.20;64.90;;;;;;5127718;22;20138;-66
2022/05/02 07:28:51;;;;;;;27.98;24.88;;;24.10;65.10;;;;;;5131466;22;20085;-67
2022/05/02 07:30:58;;;;;;;29.13;24.75;;;24.10;65.40;;;;;;5126525;22;20031;-67
2022/05/02 07:33:03;;;;;;;27.23;22.98;;;24.10;65.60;;;;;;5130788;22;20428;-67
2022/05/02 07:35:07;;;;;;;26.73;22.10;;;24.00;65.70;;;;;;5128281;23;20059;-65
2022/05/02 07:37:12;;;;;;;22.23;19.83;;;24.00;65.80;;;;;;5130999;22;20024;-66
2022/05/02 07:39:16;;;;;;;24.23;19.15;;;24.10;66.00;;;;;;5135650;22;20493;-65
2022/05/02 07:41:27;;;;;;;21.45;18.65;;;24.00;66.10;;;;;;5138222;22;20396;-66
2022/05/02 07:43:49;;;;;;;19.35;17.33;;;24.00;66.20;;;;;;5140273;22;20026;-67
2022/05/02 07:45:51;;;;;;;20.80;16.70;;;24.00;66.20;;;;;;5134274;22;20036;-71
2022/05/02 07:47:58;;;;;;;18.40;15.38;;;24.00;66.30;;;;;;5139385;22;20024;-67
2022/05/02 07:50:00;;;;;;;28.17;17.67;;;24.00;66.40;;;;;;5139378;22;20161;-49
2022/05/02 07:52:08;;;;;;;20.77;16.08;;;24.00;66.10;;;;;;5129571;22;20024;-50
2022/05/02 07:54:25;;;;;;;19.02;17.00;;;24.00;66.00;;;;;;5127249;22;20036;-52
2022/05/02 07:56:33;;;;;;;18.55;15.45;;;24.00;66.10;;;;;;5127463;22;20028;-52
2022/05/02 07:58:47;;;;;;;17.63;14.88;;;23.90;66.00;;;;;;5121307;22;20608;-49
2022/05/02 08:00:52;;;;;;;18.42;14.57;;;23.90;66.10;;;;;;5120756;22;20518;-52
2022/05/02 08:02:58;;;;;;;18.48;15.02;;;23.90;66.10;;;;;;5120859;22;20031;-47
2022/05/02 08:05:01;;;;;;;14.50;12.95;;;23.90;66.10;;;;;;5121462;22;20039;-55
2022/05/02 08:07:16;;;;;;;14.43;11.63;;;23.90;66.10;;;;;;5119904;23;20153;-56
2022/05/02 08:09:44;;;;;;;13.10;11.18;;;23.80;66.10;;;;;;5128084;22;20074;-49
2022/05/02 08:12:11;;;;;;;12.32;10.68;;;23.80;66.10;;;;;;5086304;22;20070;-53
2022/05/02 08:14:34;;;;;;;15.50;10.43;;;23.80;66.10;;;;;;5127468;23;20028;-47
2022/05/02 08:16:49;;;;;;;11.40;9.45;;;23.80;66.10;;;;;;5121502;22;20634;-51
2022/05/02 08:19:21;;;;;;;9.75;8.60;;;23.80;66.20;;;;;;5123272;22;20027;-54
2022/05/02 08:21:38;;;;;;;9.88;8.45;;;23.80;66.20;;;;;;5127633;22;20588;-50
2022/05/02 08:27:15;;;;;;;10.15;7.55;;;23.80;66.20;;;;;;4994684;23;20035;-49
2022/05/02 08:29:30;;;;;;;8.45;6.90;;;23.70;66.20;;;;;;5118823;22;20051;-51
2022/05/02 08:32:02;;;;;;;7.00;5.90;;;23.70;66.20;;;;;;5122077;22;20034;-52
2022/05/02 08:34:36;;;;;;;7.57;5.88;;;23.70;66.90;;;;;;5127188;22;20536;-51
2022/05/02 08:36:41;;;;;;;;;;;23.70;66.30;;;;;;5119390;23;20122;-48
2022/05/02 08:38:43;;;;;;;8.02;5.20;;;23.60;66.30;;;;;;5117679;22;19934;-50
2022/05/02 08:41:06;;;;;;;7.03;4.90;;;23.60;66.30;;;;;;5122239;22;20020;-54
2022/05/02 08:43:41;;;;;;;5.55;4.68;;;23.60;66.40;;;;;;5119068;22;20024;-49
2022/05/02 08:46:14;;;;;;;7.45;4.80;;;23.60;66.40;;;;;;5119625;23;20091;-49
2022/05/02 08:48:36;;;;;;;5.63;4.13;;;23.60;66.40;;;;;;5118120;22;20177;-47
2022/05/02 08:51:15;;;;;;;5.82;4.07;;;23.60;66.40;;;;;;5120343;22;20378;-50
2022/05/02 08:53:17;;;;;;;5.63;3.90;;;23.60;66.50;;;;;;5123348;23;20788;-46
2022/05/02 08:55:37;;;;;;;4.68;3.60;;;23.60;66.60;;;;;;5115700;22;20110;-45
2022/05/02 08:58:17;;;;;;;4.43;3.20;;;23.50;66.50;;;;;;5122050;23;20051;-48
2022/05/02 09:00:46;;;;;;;4.78;2.95;;;23.50;66.60;;;;;;5112076;22;20028;-48
2022/05/02 09:03:23;;;;;;;4.22;2.88;;;23.50;66.60;;;;;;5108259;23;20085;-50
2022/05/02 09:05:58;;;;;;;3.95;2.67;;;23.50;66.70;;;;;;5119017;22;20046;-48
2022/05/02 09:08:18;;;;;;;5.07;2.72;;;23.50;66.70;;;;;;5109587;22;20038;-50
2022/05/02 09:10:39;;;;;;;4.50;2.80;;;23.50;66.70;;;;;;5116745;23;20550;-51
2022/05/02 09:13:25;;;;;;;3.78;2.63;;;23.50;66.80;;;;;;5111634;22;20032;-52
2022/05/02 09:15:45;;;;;;;3.58;2.58;;;23.40;66.80;;;;;;5025044;22;20028;-52
2022/05/02 09:18:08;;;;;;;3.90;2.33;;;23.40;66.80;;;;;;5107245;22;20608;-46
2022/05/02 09:20:32;;;;;;;3.67;2.30;;;23.40;66.90;;;;;;5113021;23;20105;-48
2022/05/02 09:23:02;;;;;;;2.85;2.00;;;23.40;66.90;;;;;;5110552;22;20671;-48
2022/05/02 09:25:12;;;;;;;3.22;2.17;;;23.40;66.90;;;;;;5105434;22;21121;-53
2022/05/02 09:27:21;;;;;;;3.40;2.10;;;23.40;67.00;;;;;;5107320;22;20734;-52
2022/05/02 09:29:41;;;;;;;2.75;2.00;;;23.30;66.90;;;;;;5111776;22;20024;-53
2022/05/02 09:32:17;;;;;;;3.67;2.05;;;23.40;67.00;;;;;;5108805;23;20025;-51
2022/05/02 09:34:20;;;;;;;3.47;1.85;;;23.30;67.00;;;;;;5109160;22;21072;-48
2022/05/02 09:36:43;;;;;;;3.40;1.77;;;23.30;67.00;;;;;;5109693;22;20028;-46
2022/05/02 09:38:51;;;;;;;2.55;1.80;;;23.30;67.00;;;;;;5109456;22;20453;-47
2022/05/02 09:41:16;;;;;;;2.83;1.63;;;23.30;67.10;;;;;;5110970;22;20316;-50
2022/05/02 09:49:33;;;;;;;2.63;1.65;;;23.30;67.20;;;;;;5117224;23;20028;-51
2022/05/02 09:51:56;;;;;;;2.30;1.52;;;23.30;67.20;;;;;;5115626;22;20119;-46
2022/05/02 09:56:37;;;;;;;2.97;1.60;;;23.30;67.20;;;;;;5110054;22;20035;-56
2022/05/02 09:56:48;;;;;;;2.55;1.58;;;23.20;67.20;;;;;;5106269;23;20277;-50
2022/05/02 09:59:10;;;;;;;1.95;1.42;;;23.20;67.30;;;;;;5115287;22;20032;-51
2022/05/02 10:01:13;;;;;;;2.97;1.67;;;23.20;67.30;;;;;;5109566;22;20549;-49
2022/05/02 10:03:24;;;;;;;1.45;1.20;;;23.20;67.30;;;;;;5116079;22;20067;-50
2022/05/02 10:05:55;;;;;;;2.28;1.40;;;23.20;67.30;;;;;;5116420;22;20482;-56
2022/05/02 10:08:26;;;;;;;1.52;1.20;;;23.20;67.30;;;;;;5102249;23;20028;-48
2022/05/02 10:10:50;;;;;;;2.67;1.63;;;23.20;67.30;;;;;;5113610;23;20035;-48
2022/05/02 10:13:14;;;;;;;1.98;1.10;;;23.20;67.30;;;;;;5111099;22;20114;-51
2022/05/02 10:15:54;;;;;;;2.72;1.77;;;23.20;67.50;;;;;;5105776;23;20097;-48
2022/05/02 10:18:42;;;;;;;1.60;1.20;;;23.10;67.30;;;;;;5112813;23;21074;-46
2022/05/02 10:21:20;;;;;;;1.70;1.30;;;23.20;67.40;;;;;;5061503;23;20991;-47
2022/05/02 10:23:42;;;;;;;2.75;1.55;;;23.20;67.50;;;;;;5115511;22;20035;-51
2022/05/02 10:26:06;;;;;;;2.00;1.30;;;23.10;67.40;;;;;;5121191;22;20051;-49
2022/05/02 10:28:16;;;;;;;1.42;1.10;;;23.10;68.00;;;;;;5115184;22;20032;-47
2022/05/02 10:30:20;;;;;;;2.05;1.20;;;23.10;67.50;;;;;;5112972;22;20027;-49
2022/05/02 10:32:29;;;;;;;2.45;1.23;;;23.10;67.50;;;;;;5122170;22;20028;-48
2022/05/02 10:34:33;;;;;;;2.30;1.13;;;23.10;67.50;;;;;;5120410;22;20345;-49
2022/05/02 10:36:41;;;;;;;2.28;1.27;;;23.10;67.50;;;;;;5115053;22;20361;-50
2022/05/02 10:39:01;;;;;;;3.47;1.52;;;23.00;67.50;;;;;;5114582;22;20031;-49
2022/05/02 10:41:43;;;;;;;2.30;1.52;;;23.10;67.70;;;;;;5116762;22;20838;-52
2022/05/02 10:44:01;;;;;;;2.20;1.20;;;23.00;67.60;;;;;;5099603;23;20024;-49
2022/05/02 10:46:04;;;;;;;1.73;1.25;;;23.00;67.60;;;;;;5118042;22;20032;-47
2022/05/02 10:48:18;;;;;;;2.80;1.50;;;23.00;67.90;;;;;;5115868;22;20024;-46
2022/05/02 10:50:36;;;;;;;2.97;1.50;;;23.00;67.80;;;;;;5116894;22;20311;-47
2022/05/02 10:52:47;;;;;;;4.63;1.85;;;23.00;68.40;;;;;;5111750;23;20058;-49
2022/05/02 10:55:08;;;;;;;4.40;1.70;;;23.00;68.90;;;;;;5116948;23;20020;-47
2022/05/02 10:57:45;;;;;;;3.15;1.70;;;23.00;69.00;;;;;;5121815;22;20036;-48
2022/05/02 10:59:52;;;;;;;3.67;1.77;;;23.00;69.00;;;;;;5023263;23;20028;-47
2022/05/02 11:02:25;;;;;;;5.97;1.55;;;23.00;69.20;;;;;;5113523;22;20993;-46
2022/05/02 11:05:07;;;;;;;2.90;1.52;;;23.00;69.20;;;;;;5115790;23;20024;-52
2022/05/02 11:07:32;;;;;;;7.28;1.70;;;23.00;69.30;;;;;;5118335;22;20012;-49
2022/05/02 11:09:44;;;;;;;5.78;1.60;;;23.00;69.60;;;;;;5113130;22;20458;-44
2022/05/02 11:11:51;;;;;;;2.47;1.50;;;23.00;69.50;;;;;;5112256;22;20024;-50
2022/05/02 11:14:23;;;;;;;9.35;1.80;;;23.00;69.60;;;;;;5115634;22;20028;-48
2022/05/02 11:16:37;;;;;;;6.03;1.67;;;23.00;69.70;;;;;;5119033;23;20448;-49
2022/05/02 11:21:52;;;;;;;3.63;1.50;;;23.00;69.70;;;;;;5116801;23;20524;-46
2022/05/02 11:24:39;;;;;;;6.15;1.92;;;23.10;69.80;;;;;;5113511;23;20127;-44
2022/05/02 11:26:50;;;;;;;3.10;1.52;;;23.00;69.70;;;;;;5101976;22;20119;-49
2022/05/02 11:29:17;;;;;;;3.05;1.70;;;23.00;69.70;;;;;;5117202;22;20034;-46
2022/05/02 11:31:41;;;;;;;2.80;1.67;;;23.00;69.70;;;;;;5124197;23;20028;-51
2022/05/02 11:33:54;;;;;;;4.15;1.83;;;23.00;69.70;;;;;;5117206;22;20024;-47
2022/05/02 11:36:02;;;;;;;5.80;1.50;;;23.00;69.70;;;;;;5114097;22;20036;-46
2022/05/02 11:38:27;;;;;;;4.53;1.75;;;23.00;69.80;;;;;;5111963;22;20028;-50
2022/05/02 11:40:34;;;;;;;7.72;1.65;;;23.00;69.90;;;;;;5114744;22;20038;-45
2022/05/02 11:42:42;;;;;;;3.67;1.52;;;23.00;69.80;;;;;;5116560;22;20034;-48
2022/05/02 11:45:10;;;;;;;2.95;1.50;;;23.00;69.70;;;;;;5117431;22;20570;-47